sensor_id;sensor_type;location;lat;lon;timestamp;pressure;altitude;pressure_sealevel;temperature;humidity
61870;BME280;47810;42.264;23.826;2022-12-07T00:00:54;93887.53;;;4.19;82.56
61870;BME280;47810;42.264;23.826;2022-12-07T00:03:19;93889.06;;;4.25;82.25
61870;BME280;47810;42.264;23.826;2022-12-07T00:05:45;93885.88;;;4.39;81.52
61870;BME280;47810;42.264;23.826;2022-12-07T00:08:10;93887.41;;;4.44;81.30
61870;BME280;47810;42.264;23.826;2022-12-07T00:10:36;93889.22;;;4.42;80.69
61870;BME280;47810;42.264;23.826;2022-12-07T00:13:01;93898.00;;;4.19;81.77
61870;BME280;47810;42.264;23.826;2022-12-07T00:15:27;93894.84;;;4.11;82.51
61870;BME280;47810;42.264;23.826;2022-12-07T00:17:52;93889.66;;;4.32;81.39
61870;BME280;47810;42.264;23.826;2022-12-07T00:20:18;93899.72;;;4.20;81.78
61870;BME280;47810;42.264;23.826;2022-12-07T00:22:44;93894.44;;;4.42;80.66
61870;BME280;47810;42.264;23.826;2022-12-07T00:25:09;93896.19;;;4.22;81.16
61870;BME280;47810;42.264;23.826;2022-12-07T00:27:35;93890.84;;;4.03;82.50
61870;BME280;47810;42.264;23.826;2022-12-07T00:30:00;93891.44;;;4.09;82.50
61870;BME280;47810;42.264;23.826;2022-12-07T00:32:26;93892.16;;;4.35;81.23
61870;BME280;47810;42.264;23.826;2022-12-07T00:34:51;93887.88;;;4.32;81.12
61870;BME280;47810;42.264;23.826;2022-12-07T00:37:17;93891.06;;;3.96;82.24
61870;BME280;47810;42.264;23.826;2022-12-07T00:39:42;93889.25;;;4.20;81.51
61870;BME280;47810;42.264;23.826;2022-12-07T00:42:08;93888.50;;;4.17;81.55
61870;BME280;47810;42.264;23.826;2022-12-07T00:44:33;93898.44;;;4.09;82.16
61870;BME280;47810;42.264;23.826;2022-12-07T00:46:59;93896.78;;;3.84;82.64
61870;BME280;47810;42.264;23.826;2022-12-07T00:49:24;93882.81;;;3.85;83.10
61870;BME280;47810;42.264;23.826;2022-12-07T00:51:50;93885.16;;;3.91;83.58
61870;BME280;47810;42.264;23.826;2022-12-07T00:54:16;93884.31;;;4.13;82.47
61870;BME280;47810;42.264;23.826;2022-12-07T00:56:43;93874.19;;;4.27;81.40
61870;BME280;47810;42.264;23.826;2022-12-07T00:59:10;93876.59;;;4.10;82.05
61870;BME280;47810;42.264;23.826;2022-12-07T01:01:37;93882.44;;;3.94;82.67
61870;BME280;47810;42.264;23.826;2022-12-07T01:04:02;93872.28;;;3.65;82.74
61870;BME280;47810;42.264;23.826;2022-12-07T01:06:28;93882.84;;;3.62;83.01
61870;BME280;47810;42.264;23.826;2022-12-07T01:08:54;93884.84;;;3.55;83.15
61870;BME280;47810;42.264;23.826;2022-12-07T01:11:20;93874.94;;;3.18;84.23
61870;BME280;47810;42.264;23.826;2022-12-07T01:13:46;93876.31;;;3.28;83.98
61870;BME280;47810;42.264;23.826;2022-12-07T01:16:14;93878.56;;;3.37;84.07
61870;BME280;47810;42.264;23.826;2022-12-07T01:18:40;93878.44;;;3.17;84.84
61870;BME280;47810;42.264;23.826;2022-12-07T01:21:07;93865.75;;;3.31;84.09
61870;BME280;47810;42.264;23.826;2022-12-07T01:23:35;93867.56;;;3.29;84.50
61870;BME280;47810;42.264;23.826;2022-12-07T01:26:02;93872.09;;;3.47;83.95
61870;BME280;47810;42.264;23.826;2022-12-07T01:28:28;93864.91;;;3.53;83.88
61870;BME280;47810;42.264;23.826;2022-12-07T01:31:01;93855.69;;;3.66;83.28
61870;BME280;47810;42.264;23.826;2022-12-07T01:33:28;93854.69;;;3.70;83.33
61870;BME280;47810;42.264;23.826;2022-12-07T01:35:54;93853.06;;;3.89;83.11
61870;BME280;47810;42.264;23.826;2022-12-07T01:38:19;93855.22;;;3.78;83.61
61870;BME280;47810;42.264;23.826;2022-12-07T01:40:53;93855.00;;;3.84;83.86
61870;BME280;47810;42.264;23.826;2022-12-07T01:46:35;93849.56;;;4.11;82.34
61870;BME280;47810;42.264;23.826;2022-12-07T01:49:01;93838.63;;;4.01;83.13
61870;BME280;47810;42.264;23.826;2022-12-07T01:51:26;93842.97;;;4.02;83.08
61870;BME280;47810;42.264;23.826;2022-12-07T01:53:53;93842.78;;;4.07;82.79
61870;BME280;47810;42.264;23.826;2022-12-07T01:56:20;93850.50;;;3.88;83.33
61870;BME280;47810;42.264;23.826;2022-12-07T01:58:49;93854.22;;;3.82;83.56
61870;BME280;47810;42.264;23.826;2022-12-07T02:01:16;93836.34;;;3.93;83.22
61870;BME280;47810;42.264;23.826;2022-12-07T02:03:42;93852.56;;;4.02;82.49
61870;BME280;47810;42.264;23.826;2022-12-07T02:06:09;93855.09;;;3.81;82.98
61870;BME280;47810;42.264;23.826;2022-12-07T02:08:36;93849.50;;;3.68;83.03
61870;BME280;47810;42.264;23.826;2022-12-07T02:11:02;93852.59;;;3.34;84.11
61870;BME280;47810;42.264;23.826;2022-12-07T02:13:29;93850.97;;;3.30;84.38
61870;BME280;47810;42.264;23.826;2022-12-07T02:24:22;93850.09;;;3.31;84.55
61870;BME280;47810;42.264;23.826;2022-12-07T02:35:06;93840.44;;;2.86;86.91
61870;BME280;47810;42.264;23.826;2022-12-07T02:42:40;93828.66;;;2.99;86.15
61870;BME280;47810;42.264;23.826;2022-12-07T02:45:07;93822.41;;;3.03;86.25
61870;BME280;47810;42.264;23.826;2022-12-07T02:47:34;93818.28;;;3.21;85.87
61870;BME280;47810;42.264;23.826;2022-12-07T02:50:02;93814.69;;;3.24;84.74
61870;BME280;47810;42.264;23.826;2022-12-07T02:52:28;93816.00;;;3.12;85.31
61870;BME280;47810;42.264;23.826;2022-12-07T02:54:54;93804.69;;;3.35;84.77
61870;BME280;47810;42.264;23.826;2022-12-07T03:02:24;93811.19;;;3.01;85.37
61870;BME280;47810;42.264;23.826;2022-12-07T03:09:54;93823.09;;;3.09;84.88
61870;BME280;47810;42.264;23.826;2022-12-07T03:12:31;93814.47;;;3.07;84.39
61870;BME280;47810;42.264;23.826;2022-12-07T03:15:08;93823.56;;;2.96;84.96
61870;BME280;47810;42.264;23.826;2022-12-07T03:17:36;93815.34;;;2.59;86.17
61870;BME280;47810;42.264;23.826;2022-12-07T03:20:04;93817.97;;;2.82;85.80
61870;BME280;47810;42.264;23.826;2022-12-07T03:22:31;93822.53;;;2.77;86.12
61870;BME280;47810;42.264;23.826;2022-12-07T03:25:00;93819.59;;;2.86;86.30
61870;BME280;47810;42.264;23.826;2022-12-07T03:27:35;93821.38;;;3.08;85.17
61870;BME280;47810;42.264;23.826;2022-12-07T03:30:04;93813.16;;;2.95;85.23
61870;BME280;47810;42.264;23.826;2022-12-07T03:32:40;93810.16;;;2.82;85.96
61870;BME280;47810;42.264;23.826;2022-12-07T03:35:09;93799.34;;;2.93;86.30
61870;BME280;47810;42.264;23.826;2022-12-07T03:37:57;93812.94;;;3.01;86.02
61870;BME280;47810;42.264;23.826;2022-12-07T03:40:35;93809.44;;;3.02;85.94
61870;BME280;47810;42.264;23.826;2022-12-07T03:43:02;93803.47;;;3.22;85.04
61870;BME280;47810;42.264;23.826;2022-12-07T03:45:33;93799.16;;;2.97;84.87
61870;BME280;47810;42.264;23.826;2022-12-07T03:53:32;93787.06;;;2.96;85.23
61870;BME280;47810;42.264;23.826;2022-12-07T03:55:59;93793.88;;;2.75;86.22
61870;BME280;47810;42.264;23.826;2022-12-07T03:58:26;93798.03;;;2.81;86.28
61870;BME280;47810;42.264;23.826;2022-12-07T04:00:52;93794.53;;;3.06;85.59
61870;BME280;47810;42.264;23.826;2022-12-07T04:03:18;93795.53;;;3.01;85.66
61870;BME280;47810;42.264;23.826;2022-12-07T04:05:43;93794.41;;;2.85;86.38
61870;BME280;47810;42.264;23.826;2022-12-07T04:08:09;93800.19;;;2.93;86.57
61870;BME280;47810;42.264;23.826;2022-12-07T04:10:35;93791.13;;;3.03;86.17
61870;BME280;47810;42.264;23.826;2022-12-07T04:13:00;93802.00;;;3.15;85.91
61870;BME280;47810;42.264;23.826;2022-12-07T04:15:26;93798.13;;;3.25;85.56
61870;BME280;47810;42.264;23.826;2022-12-07T04:17:52;93800.63;;;3.28;85.45
61870;BME280;47810;42.264;23.826;2022-12-07T04:20:17;93804.81;;;3.32;85.19
61870;BME280;47810;42.264;23.826;2022-12-07T04:22:43;93802.63;;;3.21;86.05
61870;BME280;47810;42.264;23.826;2022-12-07T04:25:09;93792.16;;;2.99;86.31
61870;BME280;47810;42.264;23.826;2022-12-07T04:27:34;93791.81;;;3.09;86.33
61870;BME280;47810;42.264;23.826;2022-12-07T04:30:00;93790.66;;;3.16;86.67
61870;BME280;47810;42.264;23.826;2022-12-07T04:32:25;93788.78;;;3.19;86.20
61870;BME280;47810;42.264;23.826;2022-12-07T04:34:51;93787.66;;;3.03;87.01
61870;BME280;47810;42.264;23.826;2022-12-07T04:37:17;93787.38;;;3.11;87.16
61870;BME280;47810;42.264;23.826;2022-12-07T04:39:42;93791.78;;;3.32;86.52
61870;BME280;47810;42.264;23.826;2022-12-07T04:42:10;93792.69;;;3.31;86.26
61870;BME280;47810;42.264;23.826;2022-12-07T04:44:36;93794.84;;;3.20;85.80
61870;BME280;47810;42.264;23.826;2022-12-07T04:47:01;93803.75;;;3.14;86.54
61870;BME280;47810;42.264;23.826;2022-12-07T04:49:27;93808.13;;;3.14;86.55
61870;BME280;47810;42.264;23.826;2022-12-07T04:51:53;93810.44;;;2.98;87.09
61870;BME280;47810;42.264;23.826;2022-12-07T04:54:19;93804.56;;;3.16;86.11
61870;BME280;47810;42.264;23.826;2022-12-07T04:56:44;93804.38;;;2.97;86.77
61870;BME280;47810;42.264;23.826;2022-12-07T04:59:13;93804.66;;;2.66;87.52
61870;BME280;47810;42.264;23.826;2022-12-07T05:01:40;93810.25;;;2.79;87.69
61870;BME280;47810;42.264;23.826;2022-12-07T05:04:05;93807.00;;;2.97;87.00
61870;BME280;47810;42.264;23.826;2022-12-07T05:06:31;93812.09;;;3.00;86.67
61870;BME280;47810;42.264;23.826;2022-12-07T05:08:57;93810.16;;;2.82;87.55
61870;BME280;47810;42.264;23.826;2022-12-07T05:11:22;93817.31;;;2.77;87.68
61870;BME280;47810;42.264;23.826;2022-12-07T05:14:04;93813.38;;;2.65;88.20
61870;BME280;47810;42.264;23.826;2022-12-07T05:16:30;93812.97;;;2.52;88.67
61870;BME280;47810;42.264;23.826;2022-12-07T05:18:55;93807.28;;;2.41;89.15
61870;BME280;47810;42.264;23.826;2022-12-07T05:21:21;93809.53;;;2.50;88.78
61870;BME280;47810;42.264;23.826;2022-12-07T05:23:47;93807.53;;;2.59;88.41
61870;BME280;47810;42.264;23.826;2022-12-07T05:26:12;93807.19;;;2.93;87.38
61870;BME280;47810;42.264;23.826;2022-12-07T05:28:38;93805.84;;;3.04;86.45
61870;BME280;47810;42.264;23.826;2022-12-07T05:31:03;93814.81;;;2.97;86.32
61870;BME280;47810;42.264;23.826;2022-12-07T05:33:29;93804.09;;;2.82;87.15
61870;BME280;47810;42.264;23.826;2022-12-07T05:35:55;93797.38;;;2.99;86.39
61870;BME280;47810;42.264;23.826;2022-12-07T05:38:20;93788.97;;;3.15;86.00
61870;BME280;47810;42.264;23.826;2022-12-07T05:40:46;93786.94;;;2.99;86.74
61870;BME280;47810;42.264;23.826;2022-12-07T05:43:11;93793.03;;;2.98;86.79
61870;BME280;47810;42.264;23.826;2022-12-07T05:45:37;93784.31;;;2.99;86.89
61870;BME280;47810;42.264;23.826;2022-12-07T05:48:02;93796.75;;;2.93;86.92
61870;BME280;47810;42.264;23.826;2022-12-07T05:50:28;93793.75;;;2.80;87.60
61870;BME280;47810;42.264;23.826;2022-12-07T05:52:53;93805.63;;;2.64;87.87
61870;BME280;47810;42.264;23.826;2022-12-07T05:55:19;93802.91;;;2.90;87.25
61870;BME280;47810;42.264;23.826;2022-12-07T05:57:45;93805.41;;;2.93;87.18
61870;BME280;47810;42.264;23.826;2022-12-07T06:00:30;93793.72;;;3.03;86.80
61870;BME280;47810;42.264;23.826;2022-12-07T06:02:56;93795.94;;;2.91;86.41
61870;BME280;47810;42.264;23.826;2022-12-07T06:05:21;93800.41;;;3.11;85.76
61870;BME280;47810;42.264;23.826;2022-12-07T06:07:47;93801.56;;;3.03;86.01
61870;BME280;47810;42.264;23.826;2022-12-07T06:10:12;93805.47;;;3.15;85.57
61870;BME280;47810;42.264;23.826;2022-12-07T06:12:38;93798.22;;;3.00;86.48
61870;BME280;47810;42.264;23.826;2022-12-07T06:15:05;93802.22;;;2.85;87.28
61870;BME280;47810;42.264;23.826;2022-12-07T06:17:31;93794.97;;;2.93;87.52
61870;BME280;47810;42.264;23.826;2022-12-07T06:19:57;93800.75;;;3.01;87.70
61870;BME280;47810;42.264;23.826;2022-12-07T06:22:22;93790.81;;;2.89;88.15
61870;BME280;47810;42.264;23.826;2022-12-07T06:24:48;93794.75;;;2.99;87.86
61870;BME280;47810;42.264;23.826;2022-12-07T06:27:13;93794.69;;;3.01;87.70
61870;BME280;47810;42.264;23.826;2022-12-07T06:29:39;93794.06;;;2.94;87.86
61870;BME280;47810;42.264;23.826;2022-12-07T06:32:04;93799.78;;;3.04;87.97
61870;BME280;47810;42.264;23.826;2022-12-07T06:34:30;93802.97;;;3.12;88.00
61870;BME280;47810;42.264;23.826;2022-12-07T06:36:55;93805.41;;;3.17;87.86
61870;BME280;47810;42.264;23.826;2022-12-07T06:39:22;93804.59;;;3.38;87.04
61870;BME280;47810;42.264;23.826;2022-12-07T06:41:48;93801.50;;;3.50;85.12
61870;BME280;47810;42.264;23.826;2022-12-07T06:44:13;93799.59;;;3.32;86.06
61870;BME280;47810;42.264;23.826;2022-12-07T06:46:39;93801.41;;;3.30;86.49
61870;BME280;47810;42.264;23.826;2022-12-07T06:49:05;93806.13;;;3.20;86.90
61870;BME280;47810;42.264;23.826;2022-12-07T06:51:31;93806.13;;;3.20;87.34
61870;BME280;47810;42.264;23.826;2022-12-07T06:53:56;93812.19;;;3.21;87.46
61870;BME280;47810;42.264;23.826;2022-12-07T06:56:22;93817.25;;;3.25;87.84
61870;BME280;47810;42.264;23.826;2022-12-07T06:58:48;93817.28;;;3.24;87.75
61870;BME280;47810;42.264;23.826;2022-12-07T07:01:14;93809.91;;;3.35;87.21
61870;BME280;47810;42.264;23.826;2022-12-07T07:03:40;93815.13;;;3.35;87.11
61870;BME280;47810;42.264;23.826;2022-12-07T07:06:12;93814.47;;;3.52;86.80
61870;BME280;47810;42.264;23.826;2022-12-07T07:08:38;93819.78;;;3.50;86.76
61870;BME280;47810;42.264;23.826;2022-12-07T07:11:04;93817.22;;;3.49;86.85
61870;BME280;47810;42.264;23.826;2022-12-07T07:13:30;93824.06;;;3.52;86.54
61870;BME280;47810;42.264;23.826;2022-12-07T07:15:55;93820.25;;;3.60;86.50
61870;BME280;47810;42.264;23.826;2022-12-07T07:18:21;93820.06;;;3.65;86.20
61870;BME280;47810;42.264;23.826;2022-12-07T07:20:47;93820.75;;;3.70;86.12
61870;BME280;47810;42.264;23.826;2022-12-07T07:23:12;93824.63;;;3.82;85.61
61870;BME280;47810;42.264;23.826;2022-12-07T07:25:38;93812.72;;;3.74;85.84
61870;BME280;47810;42.264;23.826;2022-12-07T07:28:03;93816.00;;;3.58;86.28
61870;BME280;47810;42.264;23.826;2022-12-07T07:30:29;93813.81;;;3.69;86.09
61870;BME280;47810;42.264;23.826;2022-12-07T07:32:58;93816.97;;;3.77;84.90
61870;BME280;47810;42.264;23.826;2022-12-07T07:35:28;93818.53;;;3.59;85.42
61870;BME280;47810;42.264;23.826;2022-12-07T07:37:54;93824.53;;;3.63;85.52
61870;BME280;47810;42.264;23.826;2022-12-07T07:40:20;93827.50;;;3.54;86.70
61870;BME280;47810;42.264;23.826;2022-12-07T07:42:53;93815.66;;;3.67;86.67
61870;BME280;47810;42.264;23.826;2022-12-07T07:45:19;93827.13;;;3.63;86.48
61870;BME280;47810;42.264;23.826;2022-12-07T07:47:45;93819.50;;;3.79;86.37
61870;BME280;47810;42.264;23.826;2022-12-07T07:50:11;93816.00;;;4.02;84.94
61870;BME280;47810;42.264;23.826;2022-12-07T07:52:37;93822.41;;;4.15;83.89
61870;BME280;47810;42.264;23.826;2022-12-07T07:55:02;93818.88;;;4.16;84.53
61870;BME280;47810;42.264;23.826;2022-12-07T07:57:28;93814.50;;;4.16;84.73
61870;BME280;47810;42.264;23.826;2022-12-07T07:59:54;93812.22;;;4.29;84.84
61870;BME280;47810;42.264;23.826;2022-12-07T08:02:20;93811.94;;;4.37;85.16
61870;BME280;47810;42.264;23.826;2022-12-07T08:04:45;93806.72;;;4.56;83.99
61870;BME280;47810;42.264;23.826;2022-12-07T08:07:11;93801.09;;;4.65;83.39
61870;BME280;47810;42.264;23.826;2022-12-07T08:09:37;93797.72;;;4.42;84.23
61870;BME280;47810;42.264;23.826;2022-12-07T08:12:03;93801.13;;;4.44;84.04
61870;BME280;47810;42.264;23.826;2022-12-07T08:14:28;93803.34;;;4.54;84.43
61870;BME280;47810;42.264;23.826;2022-12-07T08:16:54;93797.34;;;4.72;83.85
61870;BME280;47810;42.264;23.826;2022-12-07T08:19:20;93802.97;;;4.63;84.24
61870;BME280;47810;42.264;23.826;2022-12-07T08:21:45;93809.13;;;4.81;83.95
61870;BME280;47810;42.264;23.826;2022-12-07T08:24:11;93807.22;;;4.84;83.95
61870;BME280;47810;42.264;23.826;2022-12-07T08:26:36;93799.91;;;4.93;82.64
61870;BME280;47810;42.264;23.826;2022-12-07T08:29:02;93805.00;;;4.96;83.32
61870;BME280;47810;42.264;23.826;2022-12-07T08:31:27;93803.00;;;5.01;83.36
61870;BME280;47810;42.264;23.826;2022-12-07T08:33:53;93805.56;;;5.02;83.22
61870;BME280;47810;42.264;23.826;2022-12-07T08:36:19;93807.56;;;5.16;82.55
61870;BME280;47810;42.264;23.826;2022-12-07T08:38:45;93812.34;;;5.46;81.23
61870;BME280;47810;42.264;23.826;2022-12-07T08:41:10;93810.41;;;5.49;79.82
61870;BME280;47810;42.264;23.826;2022-12-07T08:43:36;93808.13;;;5.42;81.22
61870;BME280;47810;42.264;23.826;2022-12-07T08:48:28;93802.06;;;5.22;81.18
61870;BME280;47810;42.264;23.826;2022-12-07T08:50:53;93796.25;;;5.16;82.20
61870;BME280;47810;42.264;23.826;2022-12-07T08:53:19;93804.66;;;5.22;82.51
61870;BME280;47810;42.264;23.826;2022-12-07T08:55:47;93800.41;;;5.20;82.52
61870;BME280;47810;42.264;23.826;2022-12-07T08:58:13;93790.09;;;5.35;81.77
61870;BME280;47810;42.264;23.826;2022-12-07T09:00:39;93801.78;;;5.28;82.39
61870;BME280;47810;42.264;23.826;2022-12-07T09:03:05;93792.22;;;5.27;82.35
61870;BME280;47810;42.264;23.826;2022-12-07T09:05:31;93791.03;;;5.34;82.54
61870;BME280;47810;42.264;23.826;2022-12-07T09:07:59;93787.63;;;5.32;82.98
61870;BME280;47810;42.264;23.826;2022-12-07T09:10:25;93790.88;;;5.37;82.38
61870;BME280;47810;42.264;23.826;2022-12-07T09:12:51;93789.47;;;5.49;82.43
61870;BME280;47810;42.264;23.826;2022-12-07T09:15:16;93782.94;;;5.58;82.14
61870;BME280;47810;42.264;23.826;2022-12-07T09:17:42;93783.38;;;5.11;82.79
61870;BME280;47810;42.264;23.826;2022-12-07T09:20:08;93780.84;;;5.28;83.09
61870;BME280;47810;42.264;23.826;2022-12-07T09:22:33;93772.19;;;5.45;82.19
61870;BME280;47810;42.264;23.826;2022-12-07T09:24:59;93770.34;;;5.66;81.07
61870;BME280;47810;42.264;23.826;2022-12-07T09:27:25;93763.84;;;5.92;79.42
61870;BME280;47810;42.264;23.826;2022-12-07T09:29:51;93771.63;;;5.57;80.86
61870;BME280;47810;42.264;23.826;2022-12-07T09:32:17;93768.09;;;5.40;81.15
61870;BME280;47810;42.264;23.826;2022-12-07T09:34:42;93770.22;;;5.31;81.75
61870;BME280;47810;42.264;23.826;2022-12-07T09:37:08;93770.66;;;5.22;82.57
61870;BME280;47810;42.264;23.826;2022-12-07T09:39:37;93773.06;;;5.08;82.66
61870;BME280;47810;42.264;23.826;2022-12-07T09:42:03;93775.75;;;5.25;82.14
61870;BME280;47810;42.264;23.826;2022-12-07T09:44:30;93768.72;;;5.45;82.38
61870;BME280;47810;42.264;23.826;2022-12-07T09:46:55;93769.38;;;5.50;82.24
61870;BME280;47810;42.264;23.826;2022-12-07T09:49:22;93763.84;;;5.56;81.83
61870;BME280;47810;42.264;23.826;2022-12-07T09:51:59;93760.84;;;5.64;82.06
61870;BME280;47810;42.264;23.826;2022-12-07T09:54:25;93764.09;;;5.69;81.86
61870;BME280;47810;42.264;23.826;2022-12-07T09:56:51;93764.25;;;5.66;81.63
61870;BME280;47810;42.264;23.826;2022-12-07T09:59:18;93765.09;;;5.66;81.39
61870;BME280;47810;42.264;23.826;2022-12-07T10:01:45;93758.47;;;5.76;80.66
61870;BME280;47810;42.264;23.826;2022-12-07T10:04:14;93752.59;;;5.54;81.11
61870;BME280;47810;42.264;23.826;2022-12-07T10:06:41;93756.31;;;5.67;81.96
61870;BME280;47810;42.264;23.826;2022-12-07T10:09:11;93750.84;;;6.43;78.76
61870;BME280;47810;42.264;23.826;2022-12-07T10:11:57;93752.50;;;6.79;79.98
61870;BME280;47810;42.264;23.826;2022-12-07T10:14:23;93752.31;;;7.31;76.76
61870;BME280;47810;42.264;23.826;2022-12-07T10:16:49;93744.72;;;7.42;77.56
61870;BME280;47810;42.264;23.826;2022-12-07T10:19:19;93734.88;;;7.61;77.19
61870;BME280;47810;42.264;23.826;2022-12-07T10:22:04;93731.03;;;7.83;75.95
61870;BME280;47810;42.264;23.826;2022-12-07T10:24:31;93721.66;;;8.09;74.45
61870;BME280;47810;42.264;23.826;2022-12-07T10:26:57;93717.97;;;7.97;73.78
61870;BME280;47810;42.264;23.826;2022-12-07T10:29:38;93714.31;;;8.30;73.92
61870;BME280;47810;42.264;23.826;2022-12-07T10:32:21;93712.63;;;8.29;73.20
61870;BME280;47810;42.264;23.826;2022-12-07T10:34:49;93701.31;;;8.43;71.57
61870;BME280;47810;42.264;23.826;2022-12-07T10:39:45;93695.56;;;8.50;72.94
61870;BME280;47810;42.264;23.826;2022-12-07T10:42:21;93698.22;;;8.79;72.03
61870;BME280;47810;42.264;23.826;2022-12-07T10:44:47;93691.84;;;8.97;73.32
61870;BME280;47810;42.264;23.826;2022-12-07T10:54:48;93694.25;;;9.70;68.68
61870;BME280;47810;42.264;23.826;2022-12-07T11:10:18;93668.59;;;9.04;70.04
61870;BME280;47810;42.264;23.826;2022-12-07T11:15:29;93656.47;;;9.57;67.98
61870;BME280;47810;42.264;23.826;2022-12-07T11:18:07;93661.88;;;9.41;68.79
61870;BME280;47810;42.264;23.826;2022-12-07T11:20:43;93653.50;;;9.62;69.50
61870;BME280;47810;42.264;23.826;2022-12-07T11:25:39;93652.50;;;10.57;66.35
61870;BME280;47810;42.264;23.826;2022-12-07T11:38:54;93625.47;;;10.40;67.57
61870;BME280;47810;42.264;23.826;2022-12-07T11:41:28;93629.78;;;10.41;66.88
61870;BME280;47810;42.264;23.826;2022-12-07T11:44:16;93635.16;;;10.53;66.74
61870;BME280;47810;42.264;23.826;2022-12-07T11:46:46;93631.78;;;10.51;66.54
61870;BME280;47810;42.264;23.826;2022-12-07T11:51:42;93625.66;;;10.37;66.37
61870;BME280;47810;42.264;23.826;2022-12-07T11:54:12;93625.41;;;10.15;67.00
61870;BME280;47810;42.264;23.826;2022-12-07T11:56:40;93616.88;;;9.84;67.31
61870;BME280;47810;42.264;23.826;2022-12-07T11:59:48;93623.22;;;9.94;65.42
61870;BME280;47810;42.264;23.826;2022-12-07T12:01:56;93614.47;;;9.94;65.46
61870;BME280;47810;42.264;23.826;2022-12-07T12:06:48;93613.56;;;9.68;69.41
61870;BME280;47810;42.264;23.826;2022-12-07T12:09:15;93606.03;;;9.76;69.41
61870;BME280;47810;42.264;23.826;2022-12-07T12:21:30;93601.16;;;10.48;65.05
61870;BME280;47810;42.264;23.826;2022-12-07T12:26:23;93595.66;;;10.64;66.39
61870;BME280;47810;42.264;23.826;2022-12-07T12:28:59;93590.34;;;10.89;65.60
61870;BME280;47810;42.264;23.826;2022-12-07T12:33:58;93583.91;;;11.30;65.69
61870;BME280;47810;42.264;23.826;2022-12-07T12:54:15;93581.44;;;12.34;59.97
61870;BME280;47810;42.264;23.826;2022-12-07T12:57:15;93575.69;;;11.94;61.37
61870;BME280;47810;42.264;23.826;2022-12-07T12:59:33;93577.22;;;12.32;58.89
61870;BME280;47810;42.264;23.826;2022-12-07T13:04:57;93575.38;;;11.62;61.40
61870;BME280;47810;42.264;23.826;2022-12-07T13:10:53;93571.69;;;11.40;60.08
61870;BME280;47810;42.264;23.826;2022-12-07T13:15:33;93573.53;;;10.90;61.78
61870;BME280;47810;42.264;23.826;2022-12-07T13:18:00;93578.59;;;10.31;65.37
61870;BME280;47810;42.264;23.826;2022-12-07T13:26:12;93574.56;;;10.38;66.65
61870;BME280;47810;42.264;23.826;2022-12-07T13:28:40;93566.09;;;10.59;65.25
61870;BME280;47810;42.264;23.826;2022-12-07T13:33:34;93567.88;;;10.20;65.76
61870;BME280;47810;42.264;23.826;2022-12-07T13:36:00;93567.72;;;9.70;67.09
61870;BME280;47810;42.264;23.826;2022-12-07T13:38:27;93569.16;;;9.62;68.24
61870;BME280;47810;42.264;23.826;2022-12-07T13:41:13;93570.16;;;9.46;68.90
61870;BME280;47810;42.264;23.826;2022-12-07T13:43:43;93567.59;;;9.72;67.63
61870;BME280;47810;42.264;23.826;2022-12-07T13:46:09;93570.16;;;9.46;68.42
61870;BME280;47810;42.264;23.826;2022-12-07T13:48:48;93561.19;;;9.09;70.49
61870;BME280;47810;42.264;23.826;2022-12-07T13:51:18;93562.09;;;9.22;70.94
61870;BME280;47810;42.264;23.826;2022-12-07T13:53:48;93564.41;;;9.27;70.36
61870;BME280;47810;42.264;23.826;2022-12-07T13:56:14;93564.22;;;9.30;70.05
61870;BME280;47810;42.264;23.826;2022-12-07T13:58:41;93566.78;;;9.31;70.53
61870;BME280;47810;42.264;23.826;2022-12-07T14:01:08;93570.25;;;9.32;70.45
61870;BME280;47810;42.264;23.826;2022-12-07T14:03:34;93567.63;;;9.18;71.21
61870;BME280;47810;42.264;23.826;2022-12-07T14:06:05;93564.81;;;9.21;71.22
61870;BME280;47810;42.264;23.826;2022-12-07T14:08:31;93571.53;;;9.12;71.09
61870;BME280;47810;42.264;23.826;2022-12-07T14:10:57;93576.34;;;9.05;70.66
61870;BME280;47810;42.264;23.826;2022-12-07T14:13:31;93568.53;;;8.77;70.93
61870;BME280;47810;42.264;23.826;2022-12-07T14:15:59;93569.84;;;8.55;71.38
61870;BME280;47810;42.264;23.826;2022-12-07T14:18:35;93573.75;;;8.34;72.31
61870;BME280;47810;42.264;23.826;2022-12-07T14:21:04;93584.13;;;8.23;72.22
61870;BME280;47810;42.264;23.826;2022-12-07T14:23:31;93586.16;;;8.03;72.89
61870;BME280;47810;42.264;23.826;2022-12-07T14:26:18;93592.50;;;7.85;73.36
61870;BME280;47810;42.264;23.826;2022-12-07T14:28:45;93590.59;;;7.73;73.72
61870;BME280;47810;42.264;23.826;2022-12-07T14:31:12;93595.09;;;7.70;74.04
61870;BME280;47810;42.264;23.826;2022-12-07T14:33:38;93591.53;;;7.72;73.64
61870;BME280;47810;42.264;23.826;2022-12-07T14:36:04;93595.69;;;7.45;75.11
61870;BME280;47810;42.264;23.826;2022-12-07T14:38:29;93600.69;;;7.34;75.13
61870;BME280;47810;42.264;23.826;2022-12-07T14:40:55;93606.03;;;7.33;75.27
61870;BME280;47810;42.264;23.826;2022-12-07T14:43:41;93609.97;;;7.26;75.61
61870;BME280;47810;42.264;23.826;2022-12-07T14:46:07;93611.97;;;7.20;75.65
61870;BME280;47810;42.264;23.826;2022-12-07T14:48:33;93607.84;;;7.16;76.26
61870;BME280;47810;42.264;23.826;2022-12-07T14:50:59;93609.88;;;7.11;76.62
61870;BME280;47810;42.264;23.826;2022-12-07T14:53:27;93609.47;;;7.03;76.42
61870;BME280;47810;42.264;23.826;2022-12-07T14:55:54;93603.88;;;6.93;76.90
61870;BME280;47810;42.264;23.826;2022-12-07T14:58:20;93601.00;;;6.98;76.99
61870;BME280;47810;42.264;23.826;2022-12-07T15:00:45;93599.63;;;7.22;75.35
61870;BME280;47810;42.264;23.826;2022-12-07T15:03:13;93596.25;;;6.89;76.21
61870;BME280;47810;42.264;23.826;2022-12-07T15:05:38;93595.91;;;6.63;77.55
61870;BME280;47810;42.264;23.826;2022-12-07T15:08:05;93607.53;;;6.42;78.34
61870;BME280;47810;42.264;23.826;2022-12-07T15:10:32;93602.28;;;6.42;78.52
61870;BME280;47810;42.264;23.826;2022-12-07T15:13:00;93601.97;;;6.48;78.97
61870;BME280;47810;42.264;23.826;2022-12-07T15:15:45;93604.03;;;6.59;78.43
61870;BME280;47810;42.264;23.826;2022-12-07T15:18:14;93612.13;;;6.54;78.61